Notice: Undefined index: language in D:\xampp\htdocs\vam\index.php on line 25
Open Air Virtual

 METAR AND TAF INFORMATION
METAR FOR ESOK
ADDS - METARS form results

(2219 UTC 14 December 2019)
Data provider http://aviationweather.gov/metar/data/
 
METAR text: ESOK 142150Z AUTO 08005KT 5000 BR FEW005/// BKN007/// OVC009/// 02/02 Q0983 REDZ
Conditions at: ESOK (KARLSTAD NORTH , SE) observed 2150 UTC 14 December 2019
Temperature: 2.0°C (36°F)
Dewpoint: 2.0°C (36°F) [RH = 100%]
Pressure (altimeter): 29.03 inches Hg (983.0 mb)
Winds: from the E (80 degrees) at 6 MPH (5 knots; 2.6 m/s)
Visibility: 3 miles ( 5 km)
Ceiling: 700 feet AGL
Clouds: few clouds at 500 feet AGL
broken clouds at 700 feet AGL
overcast cloud deck at 900 feet AGL
Weather: BR  (mist)

METAR text: ESOK 142120Z AUTO 08005KT 4300 DZ FEW004/// BKN006/// OVC010/// 02/02 Q0983 REUP REDZ
Conditions at: ESOK (KARLSTAD NORTH , SE) observed 2120 UTC 14 December 2019
Temperature: 2.0°C (36°F)
Dewpoint: 2.0°C (36°F) [RH = 100%]
Pressure (altimeter): 29.03 inches Hg (983.0 mb)
Winds: from the E (80 degrees) at 6 MPH (5 knots; 2.6 m/s)
Visibility: 2.67 miles (4.30 km)
Ceiling: 600 feet AGL
Clouds: few clouds at 400 feet AGL
broken clouds at 600 feet AGL
overcast cloud deck at 1000 feet AGL
Weather: DZ  (moderate drizzle)

 AIRPORT MAP

 RUNWAY INFORMATION
Runway 03 Runway length 8255 ft Runway width 148 ft
Runway elevation 332 ft Runway displaced threshold 0 ft Runway heading 26
Runway 21 Runway length 8255 ft Runway width 148 ft
Runway elevation 352 ft Runway displaced threshold 0 ft Runway heading 206
Runway 03L Runway length 1840 ft Runway width 170 ft
Runway elevation 0 ft Runway displaced threshold 0 ft Runway heading 26
Runway 21R Runway length 1840 ft Runway width 170 ft
Runway elevation 0 ft Runway displaced threshold 0 ft Runway heading 206

 AIRPORT FREQUENCIES
Type TWR Name TWR Frequency 119.45 MHZ

 AIRPORT NEAR NAVIGATION AIDS
Type VOR-DME Name Karlstad Frequency 117800 KHZ



Powered by Virtual Airlines Manager [v2.6.2]